Harper, Kentucky
Current Conditions -  °F | °C
As of 12:53 AM on Saturday 29 Nov 2014 (Local Time) from KJKL Reporting Station
Clear Clear  
Wind Chill:   Ceiling: Unl
Heat Index:   Visibility: 10mi
Dew Point: -8°   Wind: 3mph
Humidity: 50%   Direction: 220°SW
Pressure: 30.11"   Gusts: NA
Location:  37.7261°N, 83.0786°W
Report Text: KJKL 290553Z AUTO 22003KT 10SM CLR 01/M08 A3011 RMK AO2 SLP206 T00111083 10011 21006 56011
Loading
Personal Weather Stations






























Interactive Weather Map New forecast layout! Learn more

10-Day Weather Forecast

Advertisements
Track Severe Weather on mobile